createdAt,value
2023-05-07T00:00:52.007Z,14.31
2023-05-07T00:03:18.542Z,14.29
2023-05-07T00:05:44.885Z,14.30
2023-05-07T00:08:11.330Z,14.29
2023-05-07T00:10:37.917Z,14.26
2023-05-07T00:13:04.293Z,14.22
2023-05-07T00:15:30.691Z,14.19
2023-05-07T00:17:57.166Z,14.16
2023-05-07T00:20:23.532Z,14.13
2023-05-07T00:22:50.236Z,14.12
2023-05-07T00:25:16.630Z,14.10
2023-05-07T00:27:43.011Z,14.08
2023-05-07T00:30:09.743Z,14.06
2023-05-07T00:32:36.011Z,14.04
2023-05-07T00:35:02.401Z,14.06
2023-05-07T00:37:28.849Z,14.05
2023-05-07T00:39:55.577Z,14.01
2023-05-07T00:42:22.126Z,13.99
2023-05-07T00:44:48.614Z,13.94
2023-05-07T00:47:15.165Z,13.90
2023-05-07T00:49:41.619Z,13.84
2023-05-07T00:52:08.002Z,13.80
2023-05-07T00:54:34.359Z,13.78
2023-05-07T00:57:01.026Z,13.74
2023-05-07T00:59:27.562Z,13.70
2023-05-07T01:01:53.995Z,13.71
2023-05-07T01:04:20.513Z,13.68
2023-05-07T01:06:46.852Z,13.69
2023-05-07T01:09:13.362Z,13.71
2023-05-07T01:11:39.822Z,13.69
2023-05-07T01:14:06.314Z,13.61
2023-05-07T01:16:32.692Z,13.58
2023-05-07T01:18:59.095Z,13.59
2023-05-07T01:21:25.513Z,13.67
2023-05-07T01:23:51.958Z,13.71
2023-05-07T01:26:18.489Z,13.71
2023-05-07T01:28:44.832Z,13.69
2023-05-07T01:31:11.312Z,13.58
2023-05-07T01:33:37.775Z,13.51
2023-05-07T01:36:04.237Z,13.49
2023-05-07T01:38:30.769Z,13.51
2023-05-07T01:40:57.138Z,13.52
2023-05-07T01:43:23.529Z,13.53
2023-05-07T01:45:50.016Z,13.56
2023-05-07T01:48:16.515Z,13.53
2023-05-07T01:50:42.852Z,13.52
2023-05-07T01:53:09.370Z,13.51
2023-05-07T01:55:35.909Z,13.49
2023-05-07T01:58:02.317Z,13.42
2023-05-07T02:00:28.797Z,13.40
2023-05-07T02:02:55.246Z,13.39
2023-05-07T02:05:21.828Z,13.39
2023-05-07T02:07:48.213Z,13.35
2023-05-07T02:10:14.720Z,13.30
2023-05-07T02:12:41.109Z,13.27
2023-05-07T02:15:08.721Z,13.27
2023-05-07T02:17:35.167Z,13.25
2023-05-07T02:20:01.574Z,13.24
2023-05-07T02:22:27.961Z,13.22
2023-05-07T02:24:54.393Z,13.16
2023-05-07T02:27:20.849Z,13.15
2023-05-07T02:29:47.323Z,13.15
2023-05-07T02:32:13.794Z,13.12
2023-05-07T02:34:40.233Z,13.13
2023-05-07T02:37:06.866Z,13.13
2023-05-07T02:39:33.289Z,13.10
2023-05-07T02:41:59.677Z,13.09
2023-05-07T02:44:26.315Z,13.07
2023-05-07T02:46:52.713Z,13.05
2023-05-07T02:49:19.178Z,13.01
2023-05-07T02:51:45.724Z,13.01
2023-05-07T02:54:12.165Z,12.97
2023-05-07T02:56:38.570Z,12.97
2023-05-07T02:59:05.018Z,12.95
2023-05-07T03:01:31.523Z,12.93
2023-05-07T03:03:57.989Z,12.89
2023-05-07T03:06:24.362Z,12.86
2023-05-07T03:08:50.790Z,12.86
2023-05-07T03:11:17.314Z,12.84
2023-05-07T03:13:43.726Z,12.84
2023-05-07T03:16:10.220Z,12.83
2023-05-07T03:18:36.762Z,12.84
2023-05-07T03:21:03.208Z,12.84
2023-05-07T03:23:29.694Z,12.82
2023-05-07T03:25:56.112Z,12.81
2023-05-07T03:28:22.671Z,12.80
2023-05-07T03:30:49.120Z,12.81
2023-05-07T03:33:15.554Z,12.80
2023-05-07T03:35:42.002Z,12.83
2023-05-07T03:38:08.432Z,12.82
2023-05-07T03:40:34.881Z,12.80
2023-05-07T03:43:01.450Z,12.80
2023-05-07T03:45:27.856Z,12.76
2023-05-07T03:47:54.336Z,12.79
2023-05-07T03:50:20.797Z,12.81
2023-05-07T03:52:47.170Z,12.81
2023-05-07T03:55:13.711Z,12.80
2023-05-07T03:57:40.143Z,12.79
2023-05-07T04:00:06.494Z,12.83
2023-05-07T04:02:33.228Z,12.87
2023-05-07T04:04:59.464Z,12.88
2023-05-07T04:07:26.008Z,12.89
2023-05-07T04:09:52.782Z,12.90
2023-05-07T04:12:19.169Z,12.92
2023-05-07T04:14:45.814Z,12.95
2023-05-07T04:17:12.204Z,12.96
2023-05-07T04:19:38.698Z,12.95
2023-05-07T04:22:05.133Z,12.94
2023-05-07T04:24:31.595Z,12.96
2023-05-07T04:26:58.001Z,12.97
2023-05-07T04:29:24.511Z,12.99
2023-05-07T04:31:50.979Z,13.01
2023-05-07T04:34:17.420Z,13.03
2023-05-07T04:36:43.889Z,13.05
2023-05-07T04:39:10.327Z,13.07
2023-05-07T04:41:36.782Z,13.09
2023-05-07T04:44:03.269Z,13.10
2023-05-07T04:46:29.712Z,13.12
2023-05-07T04:48:56.143Z,13.13
2023-05-07T04:51:22.640Z,13.15
2023-05-07T04:53:49.025Z,13.15
2023-05-07T04:56:15.466Z,13.19
2023-05-07T04:58:42.122Z,13.25
2023-05-07T05:01:08.846Z,13.32
2023-05-07T05:03:35.299Z,13.39
2023-05-07T05:06:01.670Z,13.48
2023-05-07T05:08:28.076Z,13.56
2023-05-07T05:10:54.612Z,13.67
2023-05-07T05:13:21.150Z,13.78
2023-05-07T05:15:47.465Z,13.88
2023-05-07T05:18:13.903Z,14.00
2023-05-07T05:20:40.422Z,14.17
2023-05-07T05:23:06.790Z,14.34
2023-05-07T05:25:33.277Z,14.46
2023-05-07T05:27:59.797Z,14.61
2023-05-07T05:30:26.294Z,14.75
2023-05-07T05:32:52.893Z,14.91
2023-05-07T05:35:19.349Z,15.07
2023-05-07T05:37:45.672Z,15.19
2023-05-07T05:40:14.179Z,15.38
2023-05-07T05:42:39.036Z,15.59
2023-05-07T05:45:05.748Z,15.75
2023-05-07T05:47:32.211Z,15.92
2023-05-07T05:49:58.650Z,16.06
2023-05-07T05:52:25.013Z,16.15
2023-05-07T05:54:51.435Z,16.27
2023-05-07T05:57:18.055Z,16.59
2023-05-07T05:59:44.712Z,16.71
2023-05-07T06:02:11.878Z,16.70
2023-05-07T06:04:38.421Z,16.73
2023-05-07T06:07:07.217Z,16.88
2023-05-07T06:09:35.777Z,17.03
2023-05-07T06:12:02.234Z,17.22
2023-05-07T06:14:28.654Z,17.33
2023-05-07T06:16:56.381Z,17.52
2023-05-07T06:19:23.944Z,17.73
2023-05-07T06:21:50.654Z,17.92
2023-05-07T06:24:17.581Z,18.00
2023-05-07T06:26:44.407Z,18.17
2023-05-07T06:29:11.289Z,18.36
2023-05-07T06:31:40.181Z,18.58
2023-05-07T06:34:06.875Z,18.77
2023-05-07T06:36:35.283Z,18.98
2023-05-07T06:38:59.746Z,19.20
2023-05-07T06:41:26.178Z,19.38
2023-05-07T06:44:02.556Z,19.54
2023-05-07T06:46:30.248Z,19.62
2023-05-07T06:48:56.816Z,19.66
2023-05-07T06:51:23.312Z,19.80
2023-05-07T06:53:49.961Z,19.98
2023-05-07T06:56:17.385Z,20.12
2023-05-07T06:58:43.718Z,20.33
2023-05-07T07:01:10.284Z,20.46
2023-05-07T07:03:36.671Z,20.61
2023-05-07T07:06:03.227Z,21.00
2023-05-07T07:08:29.611Z,21.40
2023-05-07T07:10:56.068Z,21.76
2023-05-07T07:13:22.856Z,22.01
2023-05-07T07:15:49.463Z,22.23
2023-05-07T07:18:16.008Z,22.40
2023-05-07T07:20:42.451Z,22.32
2023-05-07T07:23:09.130Z,22.17
2023-05-07T07:25:35.640Z,22.15
2023-05-07T07:28:02.089Z,22.20
2023-05-07T07:30:28.492Z,22.19
2023-05-07T07:32:55.140Z,22.24
2023-05-07T07:35:21.535Z,22.09
2023-05-07T07:37:47.946Z,22.13
2023-05-07T07:40:14.508Z,22.32
2023-05-07T07:42:40.827Z,22.49
2023-05-07T07:45:07.206Z,22.64
2023-05-07T07:47:33.636Z,22.81
2023-05-07T07:50:00.049Z,22.73
2023-05-07T07:52:26.417Z,22.65
2023-05-07T07:54:52.821Z,22.90
2023-05-07T07:57:19.278Z,23.08
2023-05-07T07:59:45.689Z,23.24
2023-05-07T08:02:12.127Z,23.39
2023-05-07T08:04:39.148Z,23.53
2023-05-07T08:07:05.308Z,23.53
2023-05-07T08:09:31.757Z,23.52
2023-05-07T08:11:58.147Z,23.65
2023-05-07T08:14:24.543Z,23.88
2023-05-07T08:16:51.012Z,24.14
2023-05-07T08:19:17.356Z,24.38
2023-05-07T08:21:43.770Z,24.44
2023-05-07T08:24:10.227Z,24.47
2023-05-07T08:26:36.615Z,24.54
2023-05-07T08:29:03.035Z,24.68
2023-05-07T08:31:29.499Z,24.82
2023-05-07T08:33:55.833Z,24.95
2023-05-07T08:36:22.238Z,25.04
2023-05-07T08:38:48.653Z,24.96
2023-05-07T08:41:15.011Z,24.90
2023-05-07T08:43:41.441Z,24.91
2023-05-07T08:46:10.096Z,24.91
2023-05-07T08:48:34.227Z,25.02
2023-05-07T08:51:00.591Z,25.10
2023-05-07T08:53:27.004Z,25.21
2023-05-07T08:55:53.403Z,25.37
2023-05-07T08:58:20.034Z,25.45
2023-05-07T09:00:46.500Z,25.60
2023-05-07T09:03:12.926Z,25.74
2023-05-07T09:05:39.249Z,25.92
2023-05-07T09:08:05.664Z,26.06
2023-05-07T09:10:32.107Z,26.15
2023-05-07T09:12:58.512Z,26.21
2023-05-07T09:15:24.853Z,26.04
2023-05-07T09:17:51.376Z,26.01
2023-05-07T09:20:17.709Z,26.12
2023-05-07T09:22:44.088Z,26.32
2023-05-07T09:25:11.098Z,26.56
2023-05-07T09:27:37.392Z,26.74
2023-05-07T09:30:03.801Z,26.82
2023-05-07T09:32:30.205Z,26.92
2023-05-07T09:34:56.630Z,27.00
2023-05-07T09:37:22.985Z,27.05
2023-05-07T09:39:50.555Z,27.07
2023-05-07T09:42:16.936Z,27.03
2023-05-07T09:44:43.308Z,27.07
2023-05-07T09:47:09.796Z,27.16
2023-05-07T09:49:36.202Z,27.30
2023-05-07T09:52:02.618Z,27.50
2023-05-07T09:54:29.034Z,27.58
2023-05-07T09:56:57.928Z,27.67
2023-05-07T09:59:24.370Z,27.83
2023-05-07T10:01:50.738Z,27.94
2023-05-07T10:04:17.435Z,27.99
2023-05-07T10:06:43.846Z,27.93
2023-05-07T10:09:10.225Z,27.90
2023-05-07T10:11:36.675Z,27.86
2023-05-07T10:14:04.932Z,27.95
2023-05-07T10:16:29.569Z,28.14
2023-05-07T10:18:56.031Z,28.29
2023-05-07T10:21:22.398Z,28.36
2023-05-07T10:23:48.805Z,28.55
2023-05-07T10:26:15.205Z,28.62
2023-05-07T10:28:41.582Z,28.49
2023-05-07T10:31:08.071Z,28.24
2023-05-07T10:33:34.373Z,27.98
2023-05-07T10:36:00.899Z,27.74
2023-05-07T10:38:27.350Z,27.50
2023-05-07T10:40:53.757Z,27.46
2023-05-07T10:43:20.175Z,27.59
2023-05-07T10:45:46.831Z,27.73
2023-05-07T10:48:28.884Z,27.87
2023-05-07T10:50:40.721Z,27.99
2023-05-07T10:53:07.360Z,28.02
2023-05-07T10:55:33.798Z,28.05
2023-05-07T10:58:00.168Z,28.14
2023-05-07T11:00:38.875Z,28.23
2023-05-07T11:02:52.977Z,28.18
2023-05-07T11:05:19.350Z,28.20
2023-05-07T11:07:45.755Z,28.22
2023-05-07T11:10:12.184Z,28.26
2023-05-07T11:12:38.745Z,28.34
2023-05-07T11:15:04.998Z,28.48
2023-05-07T11:17:31.425Z,28.55
2023-05-07T11:19:57.789Z,28.52
2023-05-07T11:22:24.197Z,28.63
2023-05-07T11:24:50.596Z,28.71
2023-05-07T11:27:17.014Z,28.69
2023-05-07T11:29:43.425Z,28.72
2023-05-07T11:32:10.268Z,28.76
2023-05-07T11:34:36.522Z,28.74
2023-05-07T11:37:02.888Z,28.74
2023-05-07T11:39:29.300Z,28.79
2023-05-07T11:41:55.686Z,28.80
2023-05-07T11:44:22.267Z,28.83
2023-05-07T11:46:48.699Z,28.81
2023-05-07T11:49:15.094Z,28.76
2023-05-07T11:51:41.523Z,28.76
2023-05-07T11:54:08.106Z,28.74
2023-05-07T11:56:34.533Z,28.68
2023-05-07T11:59:00.892Z,28.55
2023-05-07T12:01:27.322Z,28.53
2023-05-07T12:03:53.870Z,28.53
2023-05-07T12:06:20.214Z,28.52
2023-05-07T12:08:48.195Z,28.44
2023-05-07T12:11:13.234Z,28.48
2023-05-07T12:13:39.617Z,28.43
2023-05-07T12:16:06.868Z,28.45
2023-05-07T12:18:33.223Z,28.53
2023-05-07T12:20:59.602Z,28.55
2023-05-07T12:23:26.044Z,28.59
2023-05-07T12:25:52.512Z,28.60
2023-05-07T12:28:18.835Z,28.56
2023-05-07T12:30:45.329Z,28.46
2023-05-07T12:33:11.673Z,28.47
2023-05-07T12:35:38.101Z,28.47
2023-05-07T12:38:04.538Z,28.46
2023-05-07T12:40:30.928Z,28.44
2023-05-07T12:42:58.531Z,28.42
2023-05-07T12:45:23.772Z,28.39
2023-05-07T12:47:50.219Z,28.36
2023-05-07T12:50:16.641Z,28.35
2023-05-07T12:52:43.016Z,28.31
2023-05-07T12:55:09.693Z,28.31
2023-05-07T12:57:35.849Z,28.32
2023-05-07T13:00:03.356Z,28.31
2023-05-07T13:02:29.829Z,28.26
2023-05-07T13:04:56.144Z,28.19
2023-05-07T13:07:22.532Z,28.14
2023-05-07T13:09:48.961Z,28.08
2023-05-07T13:12:15.563Z,28.06
2023-05-07T13:14:41.937Z,28.01
2023-05-07T13:17:08.488Z,27.96
2023-05-07T13:19:34.903Z,27.94
2023-05-07T13:22:01.287Z,27.94
2023-05-07T13:24:27.661Z,27.94
2023-05-07T13:26:54.035Z,27.89
2023-05-07T13:29:20.681Z,27.84
2023-05-07T13:31:48.393Z,27.77
2023-05-07T13:34:13.531Z,27.68
2023-05-07T13:36:40.218Z,27.59
2023-05-07T13:39:06.651Z,27.52
2023-05-07T13:41:33.080Z,27.47
2023-05-07T13:43:59.447Z,27.45
2023-05-07T13:46:25.962Z,27.38
2023-05-07T13:48:52.310Z,27.30
2023-05-07T13:51:18.694Z,27.24
2023-05-07T13:53:45.200Z,27.23
2023-05-07T13:56:11.644Z,27.19
2023-05-07T13:58:52.115Z,27.15
2023-05-07T14:01:05.618Z,27.09
2023-05-07T14:03:32.087Z,27.05
2023-05-07T14:06:00.541Z,27.01
2023-05-07T14:08:26.946Z,26.95
2023-05-07T14:10:57.282Z,26.90
2023-05-07T14:13:23.745Z,26.86
2023-05-07T14:15:52.433Z,26.81
2023-05-07T14:18:18.818Z,26.73
2023-05-07T14:20:45.532Z,26.65
2023-05-07T14:23:12.214Z,26.58
2023-05-07T14:25:38.871Z,26.53
2023-05-07T14:28:06.025Z,26.46
2023-05-07T14:30:31.914Z,26.43
2023-05-07T14:33:00.594Z,26.39
2023-05-07T14:35:28.043Z,26.31
2023-05-07T14:37:54.519Z,26.22
2023-05-07T14:40:20.925Z,26.18
2023-05-07T14:42:49.740Z,26.17
2023-05-07T14:45:16.146Z,26.13
2023-05-07T14:47:42.629Z,26.08
2023-05-07T14:50:09.086Z,26.01
2023-05-07T14:52:35.505Z,25.99
2023-05-07T14:55:01.913Z,25.95
2023-05-07T14:57:32.662Z,25.89
2023-05-07T14:59:54.800Z,25.84
2023-05-07T15:02:21.560Z,25.78
2023-05-07T15:04:47.622Z,25.72
2023-05-07T15:07:14.000Z,25.68
2023-05-07T15:09:40.600Z,25.66
2023-05-07T15:12:06.933Z,25.62
2023-05-07T15:14:33.377Z,25.60
2023-05-07T15:16:59.771Z,25.57
2023-05-07T15:19:26.140Z,25.54
2023-05-07T15:21:52.608Z,25.51
2023-05-07T15:24:18.956Z,25.48
2023-05-07T15:26:46.518Z,25.43
2023-05-07T15:29:12.930Z,25.39
2023-05-07T15:31:39.367Z,25.35
2023-05-07T15:34:06.090Z,25.32
2023-05-07T15:36:32.501Z,25.28
2023-05-07T15:38:58.870Z,25.26
2023-05-07T15:41:25.281Z,25.23
2023-05-07T15:43:51.703Z,25.16
2023-05-07T15:46:18.407Z,25.10
2023-05-07T15:48:44.618Z,25.06
2023-05-07T15:51:11.000Z,25.03
2023-05-07T15:53:37.378Z,24.99
2023-05-07T15:56:03.792Z,24.96
2023-05-07T15:58:30.287Z,24.93
2023-05-07T16:00:56.698Z,24.87
2023-05-07T16:03:23.161Z,24.84
2023-05-07T16:05:49.436Z,24.80
2023-05-07T16:08:15.872Z,24.78
2023-05-07T16:10:42.291Z,24.75
2023-05-07T16:13:08.744Z,24.71
2023-05-07T16:15:35.087Z,24.66
2023-05-07T16:18:01.560Z,24.61
2023-05-07T16:20:27.912Z,24.59
2023-05-07T16:22:54.325Z,24.54
2023-05-07T16:25:21.770Z,24.51
2023-05-07T16:27:48.382Z,24.47
2023-05-07T16:30:14.801Z,24.42
2023-05-07T16:32:41.220Z,24.37
2023-05-07T16:35:07.591Z,24.32
2023-05-07T16:37:33.984Z,24.27
2023-05-07T16:40:00.390Z,24.21
2023-05-07T16:42:26.820Z,24.15
2023-05-07T16:44:53.241Z,24.06
2023-05-07T16:47:19.603Z,24.02
2023-05-07T16:49:46.017Z,23.95
2023-05-07T16:52:12.452Z,23.87
2023-05-07T16:54:39.273Z,23.82
2023-05-07T16:57:05.660Z,23.75
2023-05-07T16:59:32.033Z,23.69
2023-05-07T17:01:59.203Z,23.61
2023-05-07T17:04:24.874Z,23.54
2023-05-07T17:06:51.328Z,23.49
2023-05-07T17:09:17.738Z,23.43
2023-05-07T17:11:44.095Z,23.39
2023-05-07T17:14:10.541Z,23.34
2023-05-07T17:16:37.146Z,23.29
2023-05-07T17:19:03.444Z,23.23
2023-05-07T17:21:29.859Z,23.19
2023-05-07T17:23:56.275Z,23.13
2023-05-07T17:26:25.083Z,23.07
2023-05-07T17:28:51.454Z,23.01
2023-05-07T17:31:17.882Z,22.97
2023-05-07T17:33:45.297Z,22.97
2023-05-07T17:36:11.701Z,22.94
2023-05-07T17:38:38.157Z,22.87
2023-05-07T17:41:05.803Z,22.82
2023-05-07T17:43:32.247Z,22.72
2023-05-07T17:45:58.647Z,22.66
2023-05-07T17:48:24.983Z,22.64
2023-05-07T17:50:51.688Z,22.56
2023-05-07T17:53:18.051Z,22.51
2023-05-07T17:55:44.433Z,22.47
2023-05-07T17:58:10.851Z,22.42
2023-05-07T18:00:37.370Z,22.36
2023-05-07T18:03:03.818Z,22.26
2023-05-07T18:05:30.292Z,22.22
2023-05-07T18:07:56.536Z,22.19
2023-05-07T18:10:23.007Z,22.13
2023-05-07T18:12:49.463Z,22.10
2023-05-07T18:15:15.785Z,22.09
2023-05-07T18:17:42.204Z,22.03
2023-05-07T18:20:09.940Z,21.99
2023-05-07T18:22:36.205Z,21.94
2023-05-07T18:25:02.588Z,21.83
2023-05-07T18:27:28.999Z,21.80
2023-05-07T18:29:55.488Z,21.72
2023-05-07T18:32:22.288Z,21.68
2023-05-07T18:34:48.460Z,21.66
2023-05-07T18:37:14.848Z,21.63
2023-05-07T18:39:41.238Z,21.56
2023-05-07T18:42:07.626Z,21.53
2023-05-07T18:44:34.458Z,21.51
2023-05-07T18:47:00.884Z,21.46
2023-05-07T18:49:28.559Z,21.34
2023-05-07T18:51:55.023Z,21.26
2023-05-07T18:54:21.506Z,21.23
2023-05-07T18:56:47.888Z,21.21
2023-05-07T18:59:14.292Z,21.16
2023-05-07T19:01:40.790Z,21.15
2023-05-07T19:04:07.138Z,21.11
2023-05-07T19:06:33.809Z,21.07
2023-05-07T19:08:59.915Z,21.00
2023-05-07T19:11:26.745Z,20.90
2023-05-07T19:13:53.139Z,20.91
2023-05-07T19:16:19.600Z,20.84
2023-05-07T19:18:46.191Z,20.79
2023-05-07T19:21:12.550Z,20.77
2023-05-07T19:23:39.166Z,20.74
2023-05-07T19:26:05.501Z,20.68
2023-05-07T19:28:31.904Z,20.67
2023-05-07T19:30:58.341Z,20.58
2023-05-07T19:33:24.863Z,20.55
2023-05-07T19:35:51.286Z,20.54
2023-05-07T19:38:17.784Z,20.53
2023-05-07T19:40:44.177Z,20.54
2023-05-07T19:43:10.627Z,20.56
2023-05-07T19:45:37.033Z,20.47
2023-05-07T19:48:03.579Z,20.46
2023-05-07T19:50:30.037Z,20.40
2023-05-07T19:52:56.494Z,20.38
2023-05-07T19:55:22.904Z,20.35
2023-05-07T19:57:49.330Z,20.31
2023-05-07T20:00:17.258Z,20.30
2023-05-07T20:02:43.727Z,20.28
2023-05-07T20:05:10.091Z,20.22
2023-05-07T20:07:36.432Z,20.20
2023-05-07T20:10:02.870Z,20.18
2023-05-07T20:12:29.354Z,20.11
2023-05-07T20:14:55.684Z,20.05
2023-05-07T20:17:22.167Z,20.03
2023-05-07T20:19:48.596Z,19.97
2023-05-07T20:22:15.026Z,19.93
2023-05-07T20:24:41.376Z,19.86
2023-05-07T20:27:07.766Z,19.84
2023-05-07T20:29:34.148Z,19.82
2023-05-07T20:32:00.547Z,19.84
2023-05-07T20:34:26.931Z,19.79
2023-05-07T20:36:53.302Z,19.76
2023-05-07T20:39:19.719Z,19.74
2023-05-07T20:41:46.103Z,19.69
2023-05-07T20:44:12.512Z,19.63
2023-05-07T20:46:38.939Z,19.61
2023-05-07T20:49:05.346Z,19.57
2023-05-07T20:51:31.993Z,19.47
2023-05-07T20:53:58.366Z,19.49
2023-05-07T20:56:24.841Z,19.51
2023-05-07T20:58:51.261Z,19.50
2023-05-07T21:01:17.847Z,19.49
2023-05-07T21:03:44.181Z,19.45
2023-05-07T21:06:10.627Z,19.42
2023-05-07T21:08:37.032Z,19.41
2023-05-07T21:11:03.490Z,19.34
2023-05-07T21:13:29.926Z,19.29
2023-05-07T21:15:56.426Z,19.26
2023-05-07T21:18:22.957Z,19.23
2023-05-07T21:20:49.379Z,19.18
2023-05-07T21:23:16.009Z,19.14
2023-05-07T21:25:42.507Z,19.05
2023-05-07T21:28:08.983Z,19.07
2023-05-07T21:30:35.344Z,19.06
2023-05-07T21:33:01.753Z,19.08
2023-05-07T21:35:28.145Z,19.08
2023-05-07T21:37:54.562Z,19.03
2023-05-07T21:40:20.932Z,18.98
2023-05-07T21:42:47.663Z,18.98
2023-05-07T21:45:14.130Z,18.98
2023-05-07T21:47:40.556Z,18.92
2023-05-07T21:50:07.001Z,18.86
2023-05-07T21:52:33.360Z,18.81
2023-05-07T21:54:59.815Z,18.79
2023-05-07T21:57:26.228Z,18.72
2023-05-07T21:59:52.600Z,18.71
2023-05-07T22:02:19.034Z,18.71
2023-05-07T22:04:45.541Z,18.66
2023-05-07T22:07:11.935Z,18.66
2023-05-07T22:09:38.330Z,18.64
2023-05-07T22:12:04.772Z,18.61
2023-05-07T22:14:31.311Z,18.59
2023-05-07T22:16:57.736Z,18.57
2023-05-07T22:19:24.297Z,18.56
2023-05-07T22:21:50.731Z,18.57
2023-05-07T22:24:17.228Z,18.52
2023-05-07T22:26:43.644Z,18.46
2023-05-07T22:29:10.035Z,18.42
2023-05-07T22:31:36.494Z,18.35
2023-05-07T22:34:02.865Z,18.29
2023-05-07T22:36:29.262Z,18.22
2023-05-07T22:38:55.748Z,18.24
2023-05-07T22:41:22.112Z,18.25
2023-05-07T22:43:48.540Z,18.24
2023-05-07T22:46:15.048Z,18.22
2023-05-07T22:48:41.429Z,18.21
2023-05-07T22:51:07.820Z,18.22
2023-05-07T22:53:34.264Z,18.15
2023-05-07T22:56:00.882Z,18.16
2023-05-07T22:58:27.259Z,18.11
2023-05-07T23:00:53.680Z,18.05
2023-05-07T23:03:20.156Z,18.03
2023-05-07T23:05:46.464Z,18.02
2023-05-07T23:08:12.907Z,17.98
2023-05-07T23:10:39.313Z,17.92
2023-05-07T23:13:05.796Z,17.95
2023-05-07T23:15:32.087Z,17.89
2023-05-07T23:17:58.521Z,17.83
2023-05-07T23:20:24.929Z,17.78
2023-05-07T23:22:51.345Z,17.75
2023-05-07T23:25:17.714Z,17.75
2023-05-07T23:27:44.100Z,17.69
2023-05-07T23:30:10.685Z,17.64
2023-05-07T23:32:36.932Z,17.61
2023-05-07T23:35:03.330Z,17.57
2023-05-07T23:37:29.727Z,17.59
2023-05-07T23:39:56.064Z,17.57
2023-05-07T23:42:22.512Z,17.58
2023-05-07T23:44:48.897Z,17.55
2023-05-07T23:47:15.265Z,17.55
2023-05-07T23:49:41.696Z,17.56
2023-05-07T23:52:08.076Z,17.57
2023-05-07T23:54:34.433Z,17.54
2023-05-07T23:57:00.954Z,17.45
2023-05-07T23:59:27.319Z,17.45
